createdAt,value
2019-02-25T00:01:37.158Z,2.10
2019-02-25T00:04:05.569Z,2.10
2019-02-25T00:06:33.058Z,2.10
2019-02-25T00:09:00.471Z,2.10
2019-02-25T00:11:28.106Z,2.00
2019-02-25T00:13:55.595Z,2.00
2019-02-25T00:16:23.053Z,2.00
2019-02-25T00:18:50.460Z,2.00
2019-02-25T00:21:18.402Z,2.00
2019-02-25T00:23:45.937Z,2.00
2019-02-25T00:26:13.390Z,2.00
2019-02-25T00:28:40.842Z,1.90
2019-02-25T00:31:08.268Z,1.90
2019-02-25T00:33:35.684Z,1.90
2019-02-25T00:36:03.149Z,1.90
2019-02-25T00:38:31.565Z,1.80
2019-02-25T00:40:58.997Z,1.80
2019-02-25T00:43:26.432Z,1.80
2019-02-25T00:45:53.838Z,1.80
2019-02-25T00:48:21.310Z,1.80
2019-02-25T00:50:48.764Z,1.70
2019-02-25T00:53:16.255Z,1.70
2019-02-25T00:55:43.668Z,1.70
2019-02-25T00:58:11.068Z,1.70
2019-02-25T01:00:38.539Z,1.70
2019-02-25T01:03:06.016Z,1.70
2019-02-25T01:05:33.442Z,1.70
2019-02-25T01:08:00.855Z,1.60
2019-02-25T01:10:28.320Z,1.60
2019-02-25T01:12:55.730Z,1.60
2019-02-25T01:15:23.228Z,1.50
2019-02-25T01:17:50.637Z,1.50
2019-02-25T01:20:18.073Z,1.50
2019-02-25T01:22:45.545Z,1.50
2019-02-25T01:25:13.090Z,1.50
2019-02-25T01:27:40.502Z,1.50
2019-02-25T01:30:09.702Z,1.40
2019-02-25T01:32:37.224Z,1.40
2019-02-25T01:35:05.786Z,1.40
2019-02-25T01:37:34.222Z,1.40
2019-02-25T01:40:01.610Z,1.40
2019-02-25T01:42:29.136Z,1.40
2019-02-25T01:44:56.593Z,1.30
2019-02-25T01:47:24.025Z,1.30
2019-02-25T01:49:51.409Z,1.30
2019-02-25T01:52:18.826Z,1.30
2019-02-25T01:54:46.235Z,1.30
2019-02-25T01:57:13.686Z,1.30
2019-02-25T01:59:41.200Z,1.20
2019-02-25T02:02:08.594Z,1.20
2019-02-25T02:04:36.144Z,1.20
2019-02-25T02:07:03.901Z,1.20
2019-02-25T02:09:31.472Z,1.20
2019-02-25T02:11:59.189Z,1.20
2019-02-25T02:14:26.810Z,1.20
2019-02-25T02:16:54.408Z,1.10
2019-02-25T02:19:21.975Z,1.10
2019-02-25T02:21:49.510Z,1.10
2019-02-25T02:24:17.058Z,1.10
2019-02-25T02:26:44.552Z,1.10
2019-02-25T02:29:12.205Z,1.10
2019-02-25T02:31:39.688Z,1.10
2019-02-25T02:34:07.179Z,1.10
2019-02-25T02:36:34.599Z,1.00
2019-02-25T02:39:02.810Z,1.00
2019-02-25T02:42:09.560Z,1.00
2019-02-25T02:44:37.040Z,1.00
2019-02-25T02:47:43.216Z,1.00
2019-02-25T02:50:13.831Z,1.00
2019-02-25T02:52:41.274Z,1.00
2019-02-25T02:55:08.789Z,0.90
2019-02-25T02:57:36.206Z,0.90
2019-02-25T03:00:06.906Z,0.90
2019-02-25T03:02:35.565Z,0.90
2019-02-25T03:05:03.494Z,0.90
2019-02-25T03:07:32.117Z,0.90
2019-02-25T03:09:59.542Z,0.90
2019-02-25T03:12:26.978Z,0.80
2019-02-25T03:14:54.421Z,0.80
2019-02-25T03:17:21.882Z,0.80
2019-02-25T03:19:49.338Z,0.80
2019-02-25T03:22:16.761Z,0.80
2019-02-25T03:24:44.166Z,0.80
2019-02-25T03:27:11.849Z,0.70
2019-02-25T03:29:39.268Z,0.70
2019-02-25T03:32:06.710Z,0.70
2019-02-25T03:34:34.178Z,0.70
2019-02-25T03:37:01.664Z,0.70
2019-02-25T03:39:29.073Z,0.70
2019-02-25T03:41:56.543Z,0.70
2019-02-25T03:44:24.053Z,0.70
2019-02-25T03:46:51.592Z,0.70
2019-02-25T03:49:19.016Z,0.60
2019-02-25T03:51:46.754Z,0.60
2019-02-25T03:54:14.529Z,0.60
2019-02-25T03:56:42.084Z,0.60
2019-02-25T03:59:09.604Z,0.60
2019-02-25T04:01:58.022Z,0.50
2019-02-25T04:04:28.562Z,0.50
2019-02-25T04:06:56.063Z,0.50
2019-02-25T04:09:23.631Z,0.50
2019-02-25T04:11:51.085Z,0.50
2019-02-25T04:14:18.558Z,0.50
2019-02-25T04:16:46.095Z,0.50
2019-02-25T04:19:13.582Z,0.50
2019-02-25T04:21:41.072Z,0.50
2019-02-25T04:24:08.582Z,0.50
2019-02-25T04:26:36.149Z,0.50
2019-02-25T04:29:03.711Z,0.50
2019-02-25T04:31:31.094Z,0.50
2019-02-25T04:33:58.543Z,0.50
2019-02-25T04:36:25.948Z,0.50
2019-02-25T04:38:53.435Z,0.50
2019-02-25T04:41:21.029Z,0.50
2019-02-25T04:43:48.510Z,0.40
2019-02-25T04:46:16.006Z,0.40
2019-02-25T04:48:43.602Z,0.40
2019-02-25T04:51:11.023Z,0.40
2019-02-25T04:53:38.566Z,0.40
2019-02-25T04:56:06.030Z,0.40
2019-02-25T04:58:33.511Z,0.40
2019-02-25T05:01:00.986Z,0.30
2019-02-25T05:03:29.494Z,0.30
2019-02-25T05:05:56.939Z,0.30
2019-02-25T05:08:24.421Z,0.30
2019-02-25T05:10:51.867Z,0.30
2019-02-25T05:13:19.373Z,0.30
2019-02-25T05:15:46.922Z,0.30
2019-02-25T05:18:14.469Z,0.30
2019-02-25T05:20:41.974Z,0.30
2019-02-25T05:23:09.521Z,0.30
2019-02-25T05:25:37.117Z,0.30
2019-02-25T05:28:05.210Z,0.30
2019-02-25T05:30:32.820Z,0.30
2019-02-25T05:33:00.321Z,0.30
2019-02-25T05:35:27.786Z,0.20
2019-02-25T05:37:56.256Z,0.20
2019-02-25T05:40:24.203Z,0.20
2019-02-25T05:42:51.701Z,0.20
2019-02-25T05:45:19.247Z,0.20
2019-02-25T05:47:47.747Z,0.20
2019-02-25T05:50:15.219Z,0.20
2019-02-25T05:52:42.670Z,0.20
2019-02-25T05:55:11.220Z,0.10
2019-02-25T05:57:38.686Z,0.10
2019-02-25T06:00:09.126Z,0.10
2019-02-25T06:02:58.484Z,0.10
2019-02-25T06:05:29.352Z,0.10
2019-02-25T06:07:57.383Z,0.10
2019-02-25T06:10:25.278Z,0.10
2019-02-25T06:12:52.845Z,0.10
2019-02-25T06:15:20.494Z,0.10
2019-02-25T06:17:47.964Z,0.20
2019-02-25T06:20:15.389Z,0.20
2019-02-25T06:22:42.929Z,0.20
2019-02-25T06:25:10.773Z,0.20
2019-02-25T06:27:38.317Z,0.30
2019-02-25T06:30:06.913Z,0.30
2019-02-25T06:32:35.434Z,0.30
2019-02-25T06:35:07.208Z,0.50
2019-02-25T06:37:34.671Z,0.70
2019-02-25T06:40:02.118Z,0.80
2019-02-25T06:42:30.749Z,1.10
2019-02-25T06:44:58.182Z,1.40
2019-02-25T06:47:28.892Z,1.90
2019-02-25T06:49:56.358Z,2.50
2019-02-25T06:52:29.755Z,3.10
2019-02-25T06:54:57.167Z,3.80
2019-02-25T06:57:24.606Z,4.80
2019-02-25T06:59:52.189Z,6.00
2019-02-25T07:02:20.599Z,7.20
2019-02-25T07:04:53.998Z,8.60
2019-02-25T07:07:40.978Z,9.80
2019-02-25T07:10:42.834Z,11.10
2019-02-25T07:13:44.944Z,12.30
2019-02-25T07:16:30.389Z,13.40
2019-02-25T07:19:29.249Z,14.70
2019-02-25T07:22:14.177Z,15.90
2019-02-25T07:25:03.999Z,17.00
2019-02-25T07:27:45.419Z,18.10
2019-02-25T07:30:41.287Z,18.90
2019-02-25T07:33:14.903Z,19.80
2019-02-25T07:36:11.154Z,20.60
2019-02-25T07:38:51.984Z,21.50
2019-02-25T07:41:40.213Z,22.60
2019-02-25T07:44:39.976Z,23.50
2019-02-25T07:47:26.990Z,24.10
2019-02-25T07:50:02.012Z,24.70
2019-02-25T07:53:07.309Z,25.40
2019-02-25T07:56:02.609Z,26.10
2019-02-25T07:58:38.733Z,26.70
2019-02-25T08:01:16.804Z,27.40
2019-02-25T08:03:52.130Z,27.90
2019-02-25T08:06:27.511Z,28.50
2019-02-25T08:09:04.241Z,29.10
2019-02-25T08:11:58.702Z,29.50
2019-02-25T08:14:45.602Z,30.30
2019-02-25T08:17:21.634Z,31.10
2019-02-25T08:20:06.016Z,31.80
2019-02-25T08:22:58.786Z,32.30
2019-02-25T08:25:44.132Z,32.50
2019-02-25T08:28:34.139Z,32.90
2019-02-25T08:31:18.198Z,33.40
2019-02-25T08:34:18.656Z,33.90
2019-02-25T08:37:16.062Z,34.20
2019-02-25T08:40:36.477Z,34.60
2019-02-25T08:43:37.760Z,35.10
2019-02-25T08:46:40.757Z,35.80
2019-02-25T08:49:40.936Z,36.40
2019-02-25T08:52:39.742Z,36.90
2019-02-25T08:55:19.820Z,37.00
2019-02-25T08:58:01.823Z,37.20
2019-02-25T09:00:41.920Z,37.20
2019-02-25T09:03:22.008Z,37.70
2019-02-25T09:06:01.972Z,38.40
2019-02-25T09:08:41.948Z,38.80
2019-02-25T09:11:21.895Z,39.40
2019-02-25T09:14:02.042Z,39.50
2019-02-25T09:16:42.213Z,39.90
2019-02-25T09:19:28.519Z,40.30
2019-02-25T09:22:10.279Z,41.00
2019-02-25T09:24:50.420Z,41.50
2019-02-25T09:27:30.353Z,41.70
2019-02-25T09:30:10.332Z,42.00
2019-02-25T09:32:50.393Z,42.30
2019-02-25T09:35:31.786Z,42.60
2019-02-25T09:38:12.252Z,42.60
2019-02-25T09:40:52.333Z,42.90
2019-02-25T09:43:32.201Z,43.20
2019-02-25T09:46:12.344Z,43.10
2019-02-25T09:48:52.166Z,43.00
2019-02-25T09:51:32.740Z,43.10
2019-02-25T09:54:13.453Z,43.30
2019-02-25T09:56:53.509Z,43.20
2019-02-25T09:59:33.580Z,43.00
2019-02-25T10:02:13.479Z,42.90
2019-02-25T10:04:53.559Z,42.90
2019-02-25T10:07:33.649Z,43.10
2019-02-25T10:10:13.564Z,43.60
2019-02-25T10:12:53.713Z,44.20
2019-02-25T10:15:33.592Z,44.60
2019-02-25T10:18:13.721Z,44.60
2019-02-25T10:20:53.580Z,44.60
2019-02-25T10:23:33.595Z,44.60
2019-02-25T10:26:13.749Z,44.70
2019-02-25T10:28:54.069Z,44.80
2019-02-25T10:31:34.179Z,45.20
2019-02-25T10:34:14.948Z,45.30
2019-02-25T10:36:54.996Z,45.50
2019-02-25T10:39:35.384Z,45.70
2019-02-25T10:42:15.177Z,45.60
2019-02-25T10:44:55.136Z,45.20
2019-02-25T10:47:35.219Z,45.20
2019-02-25T10:50:15.299Z,45.30
2019-02-25T10:53:03.189Z,45.50
2019-02-25T10:55:37.543Z,45.20
2019-02-25T10:58:17.705Z,45.30
2019-02-25T11:00:57.784Z,44.90
2019-02-25T11:03:37.672Z,44.60
2019-02-25T11:06:17.657Z,44.70
2019-02-25T11:09:04.621Z,44.40
2019-02-25T11:11:48.420Z,44.00
2019-02-25T11:14:28.651Z,44.50
2019-02-25T11:17:08.776Z,45.30
2019-02-25T11:19:48.826Z,46.00
2019-02-25T11:22:28.801Z,46.60
2019-02-25T11:25:08.818Z,46.90
2019-02-25T11:27:48.800Z,47.10
2019-02-25T11:30:28.920Z,47.00
2019-02-25T11:33:08.966Z,47.00
2019-02-25T11:35:48.954Z,47.30
2019-02-25T11:38:30.355Z,47.10
2019-02-25T11:41:11.332Z,46.40
2019-02-25T11:43:52.853Z,46.20
2019-02-25T11:46:34.071Z,46.10
2019-02-25T11:49:14.264Z,46.00
2019-02-25T11:51:54.299Z,45.50
2019-02-25T11:54:34.396Z,44.70
2019-02-25T11:57:14.910Z,44.90
2019-02-25T11:59:55.504Z,45.30
2019-02-25T12:02:35.607Z,45.70
2019-02-25T12:05:15.788Z,45.70
2019-02-25T12:07:55.536Z,44.20
2019-02-25T12:10:36.197Z,42.70
2019-02-25T12:13:18.492Z,41.20
2019-02-25T12:15:58.445Z,39.70
2019-02-25T12:18:39.462Z,38.60
2019-02-25T12:21:20.840Z,38.50
2019-02-25T12:24:01.573Z,39.20
2019-02-25T12:26:42.997Z,39.70
2019-02-25T12:29:22.946Z,39.00
2019-02-25T12:35:12.154Z,39.10
2019-02-25T12:37:52.120Z,38.10
2019-02-25T12:40:32.024Z,38.00
2019-02-25T12:43:12.112Z,38.30
2019-02-25T12:45:52.207Z,38.90
2019-02-25T12:48:32.197Z,39.30
2019-02-25T12:51:12.269Z,39.90
2019-02-25T12:53:52.261Z,40.40
2019-02-25T12:56:32.065Z,40.70
2019-02-25T12:59:12.245Z,40.20
2019-02-25T13:01:53.101Z,38.80
2019-02-25T13:04:33.612Z,37.90
2019-02-25T13:07:14.332Z,37.90
2019-02-25T13:09:54.339Z,37.30
2019-02-25T13:12:34.462Z,37.10
2019-02-25T13:15:14.622Z,36.30
2019-02-25T13:17:54.465Z,35.20
2019-02-25T13:20:34.549Z,34.90
2019-02-25T13:23:15.484Z,34.30
2019-02-25T13:25:55.201Z,34.20
2019-02-25T13:28:35.300Z,34.50
2019-02-25T13:31:16.083Z,34.80
2019-02-25T13:33:55.927Z,34.00
2019-02-25T13:36:37.983Z,32.90
2019-02-25T13:39:18.062Z,30.90
2019-02-25T13:41:57.888Z,30.40
2019-02-25T13:44:38.060Z,30.10
2019-02-25T13:47:17.946Z,30.10
2019-02-25T13:49:58.204Z,30.10
2019-02-25T13:52:47.248Z,29.60
2019-02-25T13:55:23.963Z,29.20
2019-02-25T13:58:05.007Z,28.70
2019-02-25T14:00:45.080Z,28.10
2019-02-25T14:03:25.081Z,27.90
2019-02-25T14:06:04.944Z,28.50
2019-02-25T14:08:45.246Z,29.30
2019-02-25T14:11:25.398Z,29.50
2019-02-25T14:14:05.342Z,29.10
2019-02-25T14:16:45.281Z,28.50
2019-02-25T14:19:25.411Z,27.70
2019-02-25T14:22:05.245Z,27.00
2019-02-25T14:24:45.188Z,26.90
2019-02-25T14:27:27.149Z,26.90
2019-02-25T14:30:07.487Z,27.00
2019-02-25T14:32:53.049Z,27.10
2019-02-25T14:35:30.995Z,26.80
2019-02-25T14:38:15.236Z,26.30
2019-02-25T14:40:54.034Z,25.80
2019-02-25T14:46:35.613Z,25.20
2019-02-25T14:49:15.612Z,24.70
2019-02-25T14:51:55.916Z,24.60
2019-02-25T14:54:35.965Z,24.90
2019-02-25T14:57:16.399Z,25.00
2019-02-25T14:59:56.495Z,25.00
2019-02-25T15:02:36.638Z,24.90
2019-02-25T15:05:17.319Z,24.90
2019-02-25T15:07:58.394Z,25.00
2019-02-25T15:10:40.558Z,24.90
2019-02-25T15:13:24.119Z,24.80
2019-02-25T15:16:03.042Z,24.60
2019-02-25T15:18:43.795Z,24.40
2019-02-25T15:21:24.251Z,24.00
2019-02-25T15:24:04.697Z,23.60
2019-02-25T15:26:46.005Z,23.60
2019-02-25T15:29:26.111Z,23.50
2019-02-25T15:32:06.004Z,23.40
2019-02-25T15:34:48.458Z,23.30
2019-02-25T15:37:28.965Z,23.10
2019-02-25T15:40:11.777Z,22.90
2019-02-25T15:42:51.796Z,22.80
2019-02-25T15:45:32.875Z,22.70
2019-02-25T15:48:13.973Z,22.80
2019-02-25T15:50:55.550Z,23.00
2019-02-25T15:53:36.184Z,23.30
2019-02-25T15:56:16.130Z,23.50
2019-02-25T15:58:56.256Z,23.60
2019-02-25T16:01:36.370Z,23.60
2019-02-25T16:04:16.292Z,23.40
2019-02-25T16:06:57.541Z,22.90
2019-02-25T16:09:38.310Z,22.50
2019-02-25T16:12:18.348Z,22.10
2019-02-25T16:14:58.491Z,21.60
2019-02-25T16:17:38.693Z,21.10
2019-02-25T16:20:19.603Z,20.70
2019-02-25T16:23:00.375Z,20.30
2019-02-25T16:25:42.098Z,19.90
2019-02-25T16:28:22.185Z,19.60
2019-02-25T16:31:03.989Z,19.30
2019-02-25T16:33:44.765Z,19.00
2019-02-25T16:36:26.227Z,18.60
2019-02-25T16:39:07.705Z,18.30
2019-02-25T16:41:51.475Z,18.10
2019-02-25T16:44:31.561Z,17.90
2019-02-25T16:47:11.921Z,17.70
2019-02-25T16:49:55.854Z,17.50
2019-02-25T16:52:40.703Z,17.30
2019-02-25T16:55:22.168Z,17.10
2019-02-25T16:58:03.695Z,16.90
2019-02-25T17:00:44.473Z,16.70
2019-02-25T17:03:24.511Z,16.50
2019-02-25T17:06:05.090Z,16.20
2019-02-25T17:08:47.461Z,16.10
2019-02-25T17:11:28.938Z,15.80
2019-02-25T17:14:10.964Z,15.70
2019-02-25T17:16:51.050Z,15.50
2019-02-25T17:19:31.318Z,15.10
2019-02-25T17:22:11.561Z,15.00
2019-02-25T17:24:52.400Z,14.80
2019-02-25T17:27:34.166Z,14.60
2019-02-25T17:30:15.328Z,14.50
2019-02-25T17:32:56.224Z,14.30
2019-02-25T17:35:37.256Z,14.20
2019-02-25T17:38:18.200Z,14.00
2019-02-25T17:41:01.127Z,13.80
2019-02-25T17:43:43.005Z,13.70
2019-02-25T17:46:26.380Z,13.50
2019-02-25T17:49:07.882Z,13.40
2019-02-25T17:51:49.539Z,13.30
2019-02-25T17:54:31.224Z,13.10
2019-02-25T17:57:14.146Z,13.00
2019-02-25T17:59:55.254Z,12.90
2019-02-25T18:02:36.089Z,12.80
2019-02-25T18:05:19.097Z,12.60
2019-02-25T18:07:59.765Z,12.60
2019-02-25T18:10:40.177Z,12.40
2019-02-25T18:13:21.920Z,12.30
2019-02-25T18:16:03.003Z,12.20
2019-02-25T18:18:43.218Z,12.00
2019-02-25T18:21:28.268Z,11.90
2019-02-25T18:24:07.460Z,11.70
2019-02-25T18:26:47.562Z,11.50
2019-02-25T18:29:27.860Z,11.40
2019-02-25T18:32:08.460Z,11.20
2019-02-25T18:34:50.431Z,11.10
2019-02-25T18:37:32.250Z,10.90
2019-02-25T18:40:13.940Z,10.80
2019-02-25T18:42:55.916Z,10.70
2019-02-25T18:45:38.443Z,10.60
2019-02-25T18:48:23.713Z,10.50
2019-02-25T18:51:05.081Z,10.40
2019-02-25T18:53:45.281Z,10.40
2019-02-25T18:56:25.478Z,10.40
2019-02-25T18:59:08.689Z,10.40
2019-02-25T19:01:49.316Z,10.30
2019-02-25T19:04:29.461Z,10.20
2019-02-25T19:07:10.325Z,10.10
2019-02-25T19:09:51.623Z,10.10
2019-02-25T19:12:33.183Z,10.00
2019-02-25T19:15:13.603Z,9.90
2019-02-25T19:17:54.382Z,9.80
2019-02-25T19:20:34.815Z,9.70
2019-02-25T19:23:16.792Z,9.60
2019-02-25T19:25:56.684Z,9.50
2019-02-25T19:28:36.614Z,9.50
2019-02-25T19:31:17.345Z,9.40
2019-02-25T19:34:00.087Z,9.30
2019-02-25T19:36:41.134Z,9.20
2019-02-25T19:39:21.666Z,9.10
2019-02-25T19:42:02.276Z,9.10
2019-02-25T19:44:42.444Z,9.00
2019-02-25T19:47:22.377Z,8.90
2019-02-25T19:50:04.574Z,8.80
2019-02-25T19:52:46.689Z,8.70
2019-02-25T19:55:26.732Z,8.70
2019-02-25T19:58:06.663Z,8.60
2019-02-25T20:00:50.603Z,8.40
2019-02-25T20:03:31.032Z,8.30
2019-02-25T20:06:13.883Z,8.30
2019-02-25T20:08:53.572Z,8.30
2019-02-25T20:11:35.113Z,8.30
2019-02-25T20:14:17.205Z,8.30
2019-02-25T20:16:57.368Z,8.30
2019-02-25T20:19:39.104Z,8.30
2019-02-25T20:22:19.510Z,8.20
2019-02-25T20:24:59.647Z,8.20
2019-02-25T20:27:39.442Z,8.00
2019-02-25T20:30:21.482Z,7.90
2019-02-25T20:33:03.820Z,7.90
2019-02-25T20:35:50.281Z,7.70
2019-02-25T20:38:27.178Z,7.60
2019-02-25T20:41:08.720Z,7.60
2019-02-25T20:43:53.954Z,7.50
2019-02-25T20:46:32.759Z,7.50
2019-02-25T20:49:16.413Z,7.40
2019-02-25T20:54:49.974Z,7.30
2019-02-25T20:57:31.552Z,7.20
2019-02-25T21:00:13.336Z,7.10
2019-02-25T21:02:54.344Z,7.10
2019-02-25T21:05:34.317Z,7.00
2019-02-25T21:08:15.170Z,7.00
2019-02-25T21:10:56.592Z,6.90
2019-02-25T21:13:38.067Z,6.80
2019-02-25T21:16:19.233Z,6.70
2019-02-25T21:18:59.566Z,6.70
2019-02-25T21:21:39.356Z,6.60
2019-02-25T21:24:19.521Z,6.60
2019-02-25T21:27:01.367Z,6.70
2019-02-25T21:29:41.297Z,6.60
2019-02-25T21:32:22.015Z,6.70
2019-02-25T21:35:04.394Z,6.60
2019-02-25T21:37:46.117Z,6.60
2019-02-25T21:40:27.826Z,6.60
2019-02-25T21:43:09.748Z,6.50
2019-02-25T21:45:52.156Z,6.50
2019-02-25T21:48:34.700Z,6.40
2019-02-25T21:51:15.219Z,6.40
2019-02-25T21:53:58.125Z,6.30
2019-02-25T21:56:38.319Z,6.30
2019-02-25T21:59:18.224Z,6.20
2019-02-25T22:01:59.902Z,6.20
2019-02-25T22:04:43.058Z,6.20
2019-02-25T22:07:26.703Z,6.10
2019-02-25T22:10:06.312Z,6.00
2019-02-25T22:12:46.245Z,5.90
2019-02-25T22:15:26.071Z,5.80
2019-02-25T22:18:06.737Z,5.70
2019-02-25T22:20:49.372Z,5.60
2019-02-25T22:23:30.644Z,5.50
2019-02-25T22:26:12.157Z,5.50
2019-02-25T22:28:53.294Z,5.40
2019-02-25T22:31:35.437Z,5.40
2019-02-25T22:34:17.964Z,5.40
2019-02-25T22:42:37.709Z,5.20
2019-02-25T22:45:18.813Z,5.10
2019-02-25T22:47:58.933Z,5.00
2019-02-25T22:50:39.317Z,5.00
2019-02-25T22:53:19.950Z,4.90
2019-02-25T22:56:00.147Z,4.90
2019-02-25T22:58:42.488Z,4.80
2019-02-25T23:01:23.020Z,4.80
2019-02-25T23:04:02.917Z,4.80
2019-02-25T23:06:44.546Z,4.70
2019-02-25T23:09:25.938Z,4.70
2019-02-25T23:12:06.188Z,4.60
2019-02-25T23:14:46.446Z,4.60
2019-02-25T23:17:26.977Z,4.60
2019-02-25T23:20:09.346Z,4.50
2019-02-25T23:22:49.754Z,4.50
2019-02-25T23:25:29.913Z,4.50
2019-02-25T23:28:09.863Z,4.40
2019-02-25T23:30:50.000Z,4.40
2019-02-25T23:33:29.997Z,4.30
2019-02-25T23:36:10.967Z,4.30
2019-02-25T23:38:53.078Z,4.30
2019-02-25T23:41:36.279Z,4.20
2019-02-25T23:44:17.421Z,4.20
2019-02-25T23:47:00.205Z,4.10
2019-02-25T23:49:41.529Z,4.10
2019-02-25T23:52:22.361Z,4.10
2019-02-25T23:55:02.398Z,4.10
2019-02-25T23:57:44.807Z,4.00
